sensor_id;sensor_type;location;lat;lon;timestamp;pressure;altitude;pressure_sealevel;temperature;humidity
10897;BME280;5501;51.176;6.470;2024-02-04T00:00:25;101867.78;;;12.31;100.00
10897;BME280;5501;51.176;6.470;2024-02-04T00:05:27;101866.66;;;12.45;100.00
10897;BME280;5501;51.176;6.470;2024-02-04T00:10:29;101856.25;;;12.29;100.00
10897;BME280;5501;51.176;6.470;2024-02-04T00:15:30;101847.97;;;12.45;100.00
10897;BME280;5501;51.176;6.470;2024-02-04T00:20:32;101844.44;;;12.43;100.00
10897;BME280;5501;51.176;6.470;2024-02-04T00:25:34;101844.00;;;12.19;100.00
10897;BME280;5501;51.176;6.470;2024-02-04T00:30:35;101830.91;;;12.54;100.00
10897;BME280;5501;51.176;6.470;2024-02-04T00:35:37;101843.28;;;12.58;100.00
10897;BME280;5501;51.176;6.470;2024-02-04T00:40:39;101834.16;;;12.21;100.00
10897;BME280;5501;51.176;6.470;2024-02-04T00:45:40;101845.34;;;12.44;100.00
10897;BME280;5501;51.176;6.470;2024-02-04T00:50:42;101844.78;;;12.24;100.00
10897;BME280;5501;51.176;6.470;2024-02-04T00:55:43;101838.53;;;12.25;100.00
10897;BME280;5501;51.176;6.470;2024-02-04T01:00:45;101838.38;;;12.34;100.00
10897;BME280;5501;51.176;6.470;2024-02-04T01:05:46;101845.53;;;12.32;100.00
10897;BME280;5501;51.176;6.470;2024-02-04T01:10:48;101845.22;;;12.50;100.00
10897;BME280;5501;51.176;6.470;2024-02-04T01:15:52;101836.38;;;12.48;100.00
10897;BME280;5501;51.176;6.470;2024-02-04T01:20:53;101832.75;;;12.52;100.00
10897;BME280;5501;51.176;6.470;2024-02-04T01:25:55;101839.88;;;12.50;100.00
10897;BME280;5501;51.176;6.470;2024-02-04T01:30:56;101846.28;;;12.40;100.00
10897;BME280;5501;51.176;6.470;2024-02-04T01:35:59;101849.03;;;12.34;100.00
10897;BME280;5501;51.176;6.470;2024-02-04T01:41:00;101840.81;;;12.47;100.00
10897;BME280;5501;51.176;6.470;2024-02-04T01:46:02;101840.97;;;12.40;100.00
10897;BME280;5501;51.176;6.470;2024-02-04T01:51:09;101832.91;;;12.43;100.00
10897;BME280;5501;51.176;6.470;2024-02-04T01:56:12;101830.84;;;12.57;100.00
10897;BME280;5501;51.176;6.470;2024-02-04T02:01:14;101836.56;;;12.36;100.00
10897;BME280;5501;51.176;6.470;2024-02-04T02:06:16;101835.50;;;12.46;100.00
10897;BME280;5501;51.176;6.470;2024-02-04T02:11:21;101832.00;;;12.42;100.00
10897;BME280;5501;51.176;6.470;2024-02-04T02:16:30;101826.44;;;12.56;100.00
10897;BME280;5501;51.176;6.470;2024-02-04T02:26:56;101821.94;;;12.58;100.00
10897;BME280;5501;51.176;6.470;2024-02-04T02:32:00;101828.25;;;12.52;100.00
10897;BME280;5501;51.176;6.470;2024-02-04T02:37:10;101826.47;;;12.54;100.00
10897;BME280;5501;51.176;6.470;2024-02-04T02:42:13;101831.84;;;12.51;100.00
10897;BME280;5501;51.176;6.470;2024-02-04T02:47:17;101827.19;;;12.64;100.00
10897;BME280;5501;51.176;6.470;2024-02-04T02:52:19;101827.50;;;12.46;100.00
10897;BME280;5501;51.176;6.470;2024-02-04T02:57:20;101818.47;;;12.53;100.00
10897;BME280;5501;51.176;6.470;2024-02-04T03:02:22;101815.19;;;12.39;100.00
10897;BME280;5501;51.176;6.470;2024-02-04T03:07:25;101816.25;;;12.77;100.00
10897;BME280;5501;51.176;6.470;2024-02-04T03:12:27;101810.19;;;12.68;100.00
10897;BME280;5501;51.176;6.470;2024-02-04T03:17:29;101815.63;;;12.62;100.00
10897;BME280;5501;51.176;6.470;2024-02-04T03:22:30;101818.44;;;12.56;100.00
10897;BME280;5501;51.176;6.470;2024-02-04T03:27:32;101807.75;;;12.56;100.00
10897;BME280;5501;51.176;6.470;2024-02-04T03:32:33;101806.66;;;12.66;100.00
10897;BME280;5501;51.176;6.470;2024-02-04T03:37:36;101799.34;;;12.75;100.00
10897;BME280;5501;51.176;6.470;2024-02-04T03:42:38;101814.56;;;12.72;100.00
10897;BME280;5501;51.176;6.470;2024-02-04T03:47:39;101822.25;;;12.87;100.00
10897;BME280;5501;51.176;6.470;2024-02-04T03:52:41;101815.06;;;12.92;100.00
10897;BME280;5501;51.176;6.470;2024-02-04T03:57:45;101818.50;;;13.00;100.00
10897;BME280;5501;51.176;6.470;2024-02-04T04:02:46;101808.28;;;12.74;100.00
10897;BME280;5501;51.176;6.470;2024-02-04T04:07:50;101803.66;;;12.84;100.00
10897;BME280;5501;51.176;6.470;2024-02-04T04:12:54;101806.97;;;12.95;100.00
10897;BME280;5501;51.176;6.470;2024-02-04T04:17:55;101795.69;;;12.81;100.00
10897;BME280;5501;51.176;6.470;2024-02-04T04:22:57;101807.84;;;12.97;100.00
10897;BME280;5501;51.176;6.470;2024-02-04T04:27:58;101812.63;;;12.80;100.00
10897;BME280;5501;51.176;6.470;2024-02-04T04:33:00;101813.28;;;12.91;100.00
10897;BME280;5501;51.176;6.470;2024-02-04T04:38:02;101830.22;;;12.90;100.00
10897;BME280;5501;51.176;6.470;2024-02-04T04:43:03;101835.22;;;12.61;100.00
10897;BME280;5501;51.176;6.470;2024-02-04T04:48:05;101828.66;;;12.80;100.00
10897;BME280;5501;51.176;6.470;2024-02-04T04:53:09;101830.41;;;12.81;100.00
10897;BME280;5501;51.176;6.470;2024-02-04T04:58:10;101803.81;;;12.75;100.00
10897;BME280;5501;51.176;6.470;2024-02-04T05:03:12;101792.28;;;12.74;100.00
10897;BME280;5501;51.176;6.470;2024-02-04T05:08:14;101791.19;;;12.83;100.00
10897;BME280;5501;51.176;6.470;2024-02-04T05:13:16;101803.75;;;12.78;100.00
10897;BME280;5501;51.176;6.470;2024-02-04T05:18:17;101800.84;;;12.90;100.00
10897;BME280;5501;51.176;6.470;2024-02-04T05:23:19;101796.28;;;12.95;100.00
10897;BME280;5501;51.176;6.470;2024-02-04T05:28:21;101793.94;;;12.80;100.00
10897;BME280;5501;51.176;6.470;2024-02-04T05:33:22;101798.13;;;12.93;100.00
10897;BME280;5501;51.176;6.470;2024-02-04T05:38:24;101785.75;;;12.89;100.00
10897;BME280;5501;51.176;6.470;2024-02-04T05:43:25;101772.28;;;12.93;100.00
10897;BME280;5501;51.176;6.470;2024-02-04T05:48:27;101768.72;;;12.94;100.00
10897;BME280;5501;51.176;6.470;2024-02-04T05:53:29;101761.38;;;13.05;100.00
10897;BME280;5501;51.176;6.470;2024-02-04T05:58:30;101760.63;;;12.99;100.00
10897;BME280;5501;51.176;6.470;2024-02-04T06:03:31;101760.84;;;12.87;100.00
10897;BME280;5501;51.176;6.470;2024-02-04T06:08:33;101775.00;;;12.92;100.00
10897;BME280;5501;51.176;6.470;2024-02-04T06:13:35;101753.75;;;12.86;100.00
10897;BME280;5501;51.176;6.470;2024-02-04T06:18:36;101765.97;;;12.99;100.00
10897;BME280;5501;51.176;6.470;2024-02-04T06:23:41;101780.03;;;13.08;100.00
10897;BME280;5501;51.176;6.470;2024-02-04T06:28:42;101762.53;;;12.91;100.00
10897;BME280;5501;51.176;6.470;2024-02-04T06:33:50;101763.53;;;12.85;100.00
10897;BME280;5501;51.176;6.470;2024-02-04T06:38:53;101738.69;;;12.83;100.00
10897;BME280;5501;51.176;6.470;2024-02-04T06:43:54;101742.06;;;12.93;100.00
10897;BME280;5501;51.176;6.470;2024-02-04T06:48:56;101750.88;;;12.98;100.00
10897;BME280;5501;51.176;6.470;2024-02-04T06:53:57;101747.66;;;12.81;100.00
10897;BME280;5501;51.176;6.470;2024-02-04T06:58:59;101738.00;;;12.74;100.00
10897;BME280;5501;51.176;6.470;2024-02-04T07:04:00;101725.50;;;12.76;100.00
10897;BME280;5501;51.176;6.470;2024-02-04T07:09:02;101728.44;;;12.62;100.00
10897;BME280;5501;51.176;6.470;2024-02-04T07:14:04;101727.75;;;12.53;100.00
10897;BME280;5501;51.176;6.470;2024-02-04T07:19:07;101732.66;;;12.74;100.00
10897;BME280;5501;51.176;6.470;2024-02-04T07:24:08;101751.25;;;12.78;100.00
10897;BME280;5501;51.176;6.470;2024-02-04T07:29:10;101754.38;;;12.56;100.00
10897;BME280;5501;51.176;6.470;2024-02-04T07:34:13;101740.31;;;12.48;100.00
10897;BME280;5501;51.176;6.470;2024-02-04T07:39:15;101754.16;;;12.68;100.00
10897;BME280;5501;51.176;6.470;2024-02-04T07:44:16;101775.09;;;12.87;100.00
10897;BME280;5501;51.176;6.470;2024-02-04T07:49:18;101762.28;;;12.60;100.00
10897;BME280;5501;51.176;6.470;2024-02-04T07:54:19;101764.94;;;12.62;100.00
10897;BME280;5501;51.176;6.470;2024-02-04T07:59:21;101750.91;;;12.51;100.00
10897;BME280;5501;51.176;6.470;2024-02-04T08:04:23;101758.81;;;12.57;100.00
10897;BME280;5501;51.176;6.470;2024-02-04T08:09:24;101751.75;;;12.53;100.00
10897;BME280;5501;51.176;6.470;2024-02-04T08:14:26;101741.81;;;12.61;100.00
10897;BME280;5501;51.176;6.470;2024-02-04T08:19:28;101739.47;;;12.44;100.00
10897;BME280;5501;51.176;6.470;2024-02-04T08:24:29;101753.63;;;12.49;100.00
10897;BME280;5501;51.176;6.470;2024-02-04T08:29:33;101747.91;;;12.67;100.00
10897;BME280;5501;51.176;6.470;2024-02-04T08:34:35;101748.56;;;12.80;100.00
10897;BME280;5501;51.176;6.470;2024-02-04T08:39:36;101734.84;;;12.98;100.00
10897;BME280;5501;51.176;6.470;2024-02-04T08:44:38;101749.50;;;12.77;100.00
10897;BME280;5501;51.176;6.470;2024-02-04T08:49:40;101751.13;;;12.84;100.00
10897;BME280;5501;51.176;6.470;2024-02-04T08:54:42;101735.34;;;12.72;100.00
10897;BME280;5501;51.176;6.470;2024-02-04T08:59:44;101737.78;;;12.83;100.00
10897;BME280;5501;51.176;6.470;2024-02-04T09:04:45;101749.41;;;12.80;100.00
10897;BME280;5501;51.176;6.470;2024-02-04T09:09:47;101746.66;;;12.85;100.00
10897;BME280;5501;51.176;6.470;2024-02-04T09:14:49;101760.78;;;12.90;100.00
10897;BME280;5501;51.176;6.470;2024-02-04T09:19:50;101752.38;;;13.09;100.00
10897;BME280;5501;51.176;6.470;2024-02-04T09:24:52;101764.22;;;12.98;100.00
10897;BME280;5501;51.176;6.470;2024-02-04T09:29:54;101772.22;;;12.98;100.00
10897;BME280;5501;51.176;6.470;2024-02-04T09:34:56;101761.59;;;12.93;100.00
10897;BME280;5501;51.176;6.470;2024-02-04T09:39:58;101759.34;;;13.18;100.00
10897;BME280;5501;51.176;6.470;2024-02-04T09:45:00;101761.25;;;13.11;100.00
10897;BME280;5501;51.176;6.470;2024-02-04T09:50:02;101756.25;;;13.36;100.00
10897;BME280;5501;51.176;6.470;2024-02-04T09:55:06;101733.28;;;13.29;100.00
10897;BME280;5501;51.176;6.470;2024-02-04T10:00:12;101747.34;;;13.37;100.00
10897;BME280;5501;51.176;6.470;2024-02-04T10:05:17;101750.50;;;13.54;100.00
10897;BME280;5501;51.176;6.470;2024-02-04T10:10:19;101740.88;;;13.45;100.00
10897;BME280;5501;51.176;6.470;2024-02-04T10:15:20;101733.28;;;13.65;100.00
10897;BME280;5501;51.176;6.470;2024-02-04T10:20:22;101737.81;;;13.62;100.00
10897;BME280;5501;51.176;6.470;2024-02-04T10:25:24;101743.19;;;13.62;100.00
10897;BME280;5501;51.176;6.470;2024-02-04T10:30:25;101729.78;;;13.63;100.00
10897;BME280;5501;51.176;6.470;2024-02-04T10:35:27;101748.28;;;13.71;100.00
10897;BME280;5501;51.176;6.470;2024-02-04T10:40:29;101751.97;;;13.67;100.00
10897;BME280;5501;51.176;6.470;2024-02-04T10:45:32;101751.97;;;14.02;100.00
10897;BME280;5501;51.176;6.470;2024-02-04T10:50:35;101750.03;;;14.08;100.00
10897;BME280;5501;51.176;6.470;2024-02-04T10:55:42;101753.94;;;13.59;100.00
10897;BME280;5501;51.176;6.470;2024-02-04T11:00:44;101749.06;;;13.76;100.00
10897;BME280;5501;51.176;6.470;2024-02-04T11:05:50;101743.09;;;13.65;100.00
10897;BME280;5501;51.176;6.470;2024-02-04T11:10:52;101748.75;;;13.53;100.00
10897;BME280;5501;51.176;6.470;2024-02-04T11:15:57;101732.63;;;13.56;100.00
10897;BME280;5501;51.176;6.470;2024-02-04T11:21:22;101711.97;;;13.62;100.00
10897;BME280;5501;51.176;6.470;2024-02-04T11:26:27;101706.59;;;13.62;100.00
10897;BME280;5501;51.176;6.470;2024-02-04T11:31:29;101709.25;;;13.64;100.00
10897;BME280;5501;51.176;6.470;2024-02-04T11:36:37;101706.41;;;13.71;100.00
10897;BME280;5501;51.176;6.470;2024-02-04T11:41:45;101693.13;;;13.67;100.00
10897;BME280;5501;51.176;6.470;2024-02-04T11:46:49;101692.25;;;13.66;100.00
10897;BME280;5501;51.176;6.470;2024-02-04T11:51:51;101698.41;;;13.70;100.00
10897;BME280;5501;51.176;6.470;2024-02-04T11:56:53;101693.53;;;13.50;100.00
10897;BME280;5501;51.176;6.470;2024-02-04T12:01:56;101681.50;;;13.34;100.00
10897;BME280;5501;51.176;6.470;2024-02-04T12:06:59;101687.06;;;13.60;100.00
10897;BME280;5501;51.176;6.470;2024-02-04T12:12:02;101688.09;;;13.55;100.00
10897;BME280;5501;51.176;6.470;2024-02-04T12:17:08;101679.09;;;13.59;100.00
10897;BME280;5501;51.176;6.470;2024-02-04T12:22:10;101693.69;;;13.46;100.00
10897;BME280;5501;51.176;6.470;2024-02-04T12:27:15;101671.78;;;13.65;100.00
10897;BME280;5501;51.176;6.470;2024-02-04T12:32:16;101672.81;;;13.60;100.00
10897;BME280;5501;51.176;6.470;2024-02-04T12:37:22;101663.63;;;13.71;100.00
10897;BME280;5501;51.176;6.470;2024-02-04T12:42:24;101656.25;;;13.46;100.00
10897;BME280;5501;51.176;6.470;2024-02-04T12:47:26;101653.06;;;13.65;100.00
10897;BME280;5501;51.176;6.470;2024-02-04T12:52:32;101647.88;;;13.61;100.00
10897;BME280;5501;51.176;6.470;2024-02-04T12:57:36;101649.44;;;13.68;100.00
10897;BME280;5501;51.176;6.470;2024-02-04T13:02:40;101648.47;;;13.70;100.00
10897;BME280;5501;51.176;6.470;2024-02-04T13:07:42;101649.31;;;13.74;100.00
10897;BME280;5501;51.176;6.470;2024-02-04T13:12:44;101639.75;;;13.64;100.00
10897;BME280;5501;51.176;6.470;2024-02-04T13:17:46;101632.97;;;13.84;100.00
10897;BME280;5501;51.176;6.470;2024-02-04T13:22:48;101623.25;;;13.82;100.00
10897;BME280;5501;51.176;6.470;2024-02-04T13:27:49;101610.78;;;13.81;100.00
10897;BME280;5501;51.176;6.470;2024-02-04T13:32:52;101617.50;;;13.63;100.00
10897;BME280;5501;51.176;6.470;2024-02-04T13:37:54;101643.03;;;13.75;100.00
10897;BME280;5501;51.176;6.470;2024-02-04T13:42:56;101634.13;;;13.74;100.00
10897;BME280;5501;51.176;6.470;2024-02-04T13:47:58;101632.00;;;13.87;100.00
10897;BME280;5501;51.176;6.470;2024-02-04T13:52:59;101616.84;;;13.54;100.00
10897;BME280;5501;51.176;6.470;2024-02-04T13:58:01;101640.56;;;13.67;100.00
10897;BME280;5501;51.176;6.470;2024-02-04T14:03:03;101647.38;;;13.79;100.00
10897;BME280;5501;51.176;6.470;2024-02-04T14:08:06;101644.00;;;13.72;100.00
10897;BME280;5501;51.176;6.470;2024-02-04T14:13:08;101626.41;;;13.62;100.00
10897;BME280;5501;51.176;6.470;2024-02-04T14:18:14;101636.00;;;13.71;100.00
10897;BME280;5501;51.176;6.470;2024-02-04T14:23:15;101621.22;;;13.58;100.00
10897;BME280;5501;51.176;6.470;2024-02-04T14:28:17;101622.13;;;13.57;100.00
10897;BME280;5501;51.176;6.470;2024-02-04T14:33:18;101628.66;;;13.79;100.00
10897;BME280;5501;51.176;6.470;2024-02-04T14:38:20;101617.09;;;13.78;100.00
10897;BME280;5501;51.176;6.470;2024-02-04T14:43:22;101618.94;;;13.76;100.00
10897;BME280;5501;51.176;6.470;2024-02-04T14:48:24;101625.75;;;13.88;100.00
10897;BME280;5501;51.176;6.470;2024-02-04T14:53:26;101622.50;;;13.77;100.00
10897;BME280;5501;51.176;6.470;2024-02-04T14:58:28;101641.03;;;13.83;100.00
10897;BME280;5501;51.176;6.470;2024-02-04T15:03:29;101624.59;;;13.98;100.00
10897;BME280;5501;51.176;6.470;2024-02-04T15:08:31;101617.69;;;13.56;100.00
10897;BME280;5501;51.176;6.470;2024-02-04T15:13:33;101615.09;;;13.86;100.00
10897;BME280;5501;51.176;6.470;2024-02-04T15:18:35;101627.56;;;13.54;100.00
10897;BME280;5501;51.176;6.470;2024-02-04T15:23:37;101626.81;;;13.81;100.00
10897;BME280;5501;51.176;6.470;2024-02-04T15:28:38;101614.50;;;13.75;100.00
10897;BME280;5501;51.176;6.470;2024-02-04T15:33:40;101602.31;;;13.64;100.00
10897;BME280;5501;51.176;6.470;2024-02-04T15:38:42;101617.97;;;13.79;100.00
10897;BME280;5501;51.176;6.470;2024-02-04T15:43:44;101602.31;;;13.64;100.00
10897;BME280;5501;51.176;6.470;2024-02-04T15:48:46;101615.63;;;13.67;100.00
10897;BME280;5501;51.176;6.470;2024-02-04T15:53:53;101609.44;;;13.65;100.00
10897;BME280;5501;51.176;6.470;2024-02-04T15:59:13;101596.84;;;13.70;100.00
10897;BME280;5501;51.176;6.470;2024-02-04T16:04:15;101600.44;;;13.69;100.00
10897;BME280;5501;51.176;6.470;2024-02-04T16:09:18;101586.22;;;13.67;100.00
10897;BME280;5501;51.176;6.470;2024-02-04T16:14:23;101570.69;;;13.49;100.00
10897;BME280;5501;51.176;6.470;2024-02-04T16:19:26;101591.88;;;13.55;100.00
10897;BME280;5501;51.176;6.470;2024-02-04T16:24:27;101590.50;;;13.39;100.00
10897;BME280;5501;51.176;6.470;2024-02-04T16:29:29;101589.06;;;13.61;100.00
10897;BME280;5501;51.176;6.470;2024-02-04T16:34:31;101580.78;;;13.70;100.00
10897;BME280;5501;51.176;6.470;2024-02-04T16:39:39;101577.97;;;13.42;100.00
10897;BME280;5501;51.176;6.470;2024-02-04T16:44:42;101564.75;;;13.70;100.00
10897;BME280;5501;51.176;6.470;2024-02-04T16:49:44;101566.50;;;13.71;100.00
10897;BME280;5501;51.176;6.470;2024-02-04T16:54:46;101589.94;;;13.60;100.00
10897;BME280;5501;51.176;6.470;2024-02-04T16:59:48;101575.69;;;13.61;100.00
10897;BME280;5501;51.176;6.470;2024-02-04T17:04:50;101565.78;;;13.31;100.00
10897;BME280;5501;51.176;6.470;2024-02-04T17:09:53;101562.06;;;13.38;100.00
10897;BME280;5501;51.176;6.470;2024-02-04T17:14:56;101569.31;;;13.33;100.00
10897;BME280;5501;51.176;6.470;2024-02-04T17:20:09;101556.53;;;13.44;100.00
10897;BME280;5501;51.176;6.470;2024-02-04T17:25:19;101573.06;;;13.59;100.00
10897;BME280;5501;51.176;6.470;2024-02-04T17:30:23;101560.72;;;13.54;100.00
10897;BME280;5501;51.176;6.470;2024-02-04T17:35:25;101565.22;;;13.52;100.00
10897;BME280;5501;51.176;6.470;2024-02-04T17:40:32;101564.13;;;13.60;100.00
10897;BME280;5501;51.176;6.470;2024-02-04T17:45:34;101542.28;;;13.45;100.00
10897;BME280;5501;51.176;6.470;2024-02-04T17:50:36;101550.28;;;13.45;100.00
10897;BME280;5501;51.176;6.470;2024-02-04T17:55:38;101551.88;;;13.52;100.00
10897;BME280;5501;51.176;6.470;2024-02-04T18:00:40;101556.94;;;13.29;100.00
10897;BME280;5501;51.176;6.470;2024-02-04T18:05:42;101551.50;;;13.32;100.00
10897;BME280;5501;51.176;6.470;2024-02-04T18:10:44;101572.25;;;13.56;100.00
10897;BME280;5501;51.176;6.470;2024-02-04T18:15:47;101563.13;;;13.31;100.00
10897;BME280;5501;51.176;6.470;2024-02-04T18:20:54;101566.84;;;13.24;100.00
10897;BME280;5501;51.176;6.470;2024-02-04T18:25:57;101573.41;;;13.46;100.00
10897;BME280;5501;51.176;6.470;2024-02-04T18:30:58;101576.88;;;13.49;100.00
10897;BME280;5501;51.176;6.470;2024-02-04T18:36:00;101565.38;;;13.47;100.00
10897;BME280;5501;51.176;6.470;2024-02-04T18:41:01;101569.13;;;13.39;100.00
10897;BME280;5501;51.176;6.470;2024-02-04T18:46:04;101564.53;;;13.44;100.00
10897;BME280;5501;51.176;6.470;2024-02-04T18:51:07;101548.25;;;13.21;100.00
10897;BME280;5501;51.176;6.470;2024-02-04T18:56:09;101576.94;;;13.13;100.00
10897;BME280;5501;51.176;6.470;2024-02-04T19:01:16;101567.13;;;13.13;100.00
10897;BME280;5501;51.176;6.470;2024-02-04T19:06:27;101552.53;;;12.90;100.00
10897;BME280;5501;51.176;6.470;2024-02-04T19:11:29;101558.03;;;13.20;100.00
10897;BME280;5501;51.176;6.470;2024-02-04T19:16:33;101561.41;;;12.92;100.00
10897;BME280;5501;51.176;6.470;2024-02-04T19:21:41;101561.31;;;12.95;100.00
10897;BME280;5501;51.176;6.470;2024-02-04T19:26:43;101556.34;;;12.80;100.00
10897;BME280;5501;51.176;6.470;2024-02-04T19:31:47;101556.84;;;12.95;100.00
10897;BME280;5501;51.176;6.470;2024-02-04T19:36:49;101552.78;;;12.81;100.00
10897;BME280;5501;51.176;6.470;2024-02-04T19:41:50;101549.19;;;12.82;100.00
10897;BME280;5501;51.176;6.470;2024-02-04T19:46:52;101532.50;;;12.72;100.00
10897;BME280;5501;51.176;6.470;2024-02-04T19:51:54;101531.53;;;12.75;100.00
10897;BME280;5501;51.176;6.470;2024-02-04T19:56:56;101531.91;;;12.60;100.00
10897;BME280;5501;51.176;6.470;2024-02-04T20:01:57;101536.81;;;12.78;100.00
10897;BME280;5501;51.176;6.470;2024-02-04T20:07:00;101535.00;;;12.80;100.00
10897;BME280;5501;51.176;6.470;2024-02-04T20:12:07;101535.25;;;13.07;100.00
10897;BME280;5501;51.176;6.470;2024-02-04T20:17:11;101540.81;;;12.97;100.00
10897;BME280;5501;51.176;6.470;2024-02-04T20:22:13;101538.28;;;12.91;100.00
10897;BME280;5501;51.176;6.470;2024-02-04T20:27:16;101546.25;;;12.92;100.00
10897;BME280;5501;51.176;6.470;2024-02-04T20:32:17;101528.09;;;12.70;100.00
10897;BME280;5501;51.176;6.470;2024-02-04T20:37:19;101517.31;;;12.76;100.00
10897;BME280;5501;51.176;6.470;2024-02-04T20:42:23;101529.38;;;12.92;100.00
10897;BME280;5501;51.176;6.470;2024-02-04T20:47:25;101524.84;;;12.94;100.00
10897;BME280;5501;51.176;6.470;2024-02-04T20:52:26;101520.44;;;12.93;100.00
10897;BME280;5501;51.176;6.470;2024-02-04T20:57:28;101525.84;;;12.90;100.00
10897;BME280;5501;51.176;6.470;2024-02-04T21:02:30;101531.19;;;12.90;100.00
10897;BME280;5501;51.176;6.470;2024-02-04T21:07:31;101534.56;;;12.98;100.00
10897;BME280;5501;51.176;6.470;2024-02-04T21:12:33;101541.94;;;12.87;100.00
10897;BME280;5501;51.176;6.470;2024-02-04T21:17:35;101544.03;;;13.11;100.00
10897;BME280;5501;51.176;6.470;2024-02-04T21:22:37;101541.06;;;13.23;100.00
10897;BME280;5501;51.176;6.470;2024-02-04T21:27:40;101527.19;;;13.09;100.00
10897;BME280;5501;51.176;6.470;2024-02-04T21:32:42;101521.13;;;13.36;100.00
10897;BME280;5501;51.176;6.470;2024-02-04T21:37:46;101511.94;;;13.12;100.00
10897;BME280;5501;51.176;6.470;2024-02-04T21:42:48;101508.06;;;13.24;100.00
10897;BME280;5501;51.176;6.470;2024-02-04T21:47:49;101518.94;;;13.18;100.00
10897;BME280;5501;51.176;6.470;2024-02-04T21:52:51;101517.66;;;12.97;100.00
10897;BME280;5501;51.176;6.470;2024-02-04T21:57:52;101503.28;;;13.03;100.00
10897;BME280;5501;51.176;6.470;2024-02-04T22:02:54;101505.59;;;13.18;100.00
10897;BME280;5501;51.176;6.470;2024-02-04T22:07:58;101511.41;;;13.00;100.00
10897;BME280;5501;51.176;6.470;2024-02-04T22:13:00;101513.91;;;13.06;100.00
10897;BME280;5501;51.176;6.470;2024-02-04T22:18:03;101516.78;;;12.97;100.00
10897;BME280;5501;51.176;6.470;2024-02-04T22:23:05;101513.34;;;12.92;100.00
10897;BME280;5501;51.176;6.470;2024-02-04T22:28:06;101522.66;;;13.11;100.00
10897;BME280;5501;51.176;6.470;2024-02-04T22:33:09;101517.00;;;12.88;100.00
10897;BME280;5501;51.176;6.470;2024-02-04T22:38:10;101517.72;;;12.94;100.00
10897;BME280;5501;51.176;6.470;2024-02-04T22:43:12;101521.84;;;13.09;100.00
10897;BME280;5501;51.176;6.470;2024-02-04T22:48:14;101506.50;;;13.17;100.00
10897;BME280;5501;51.176;6.470;2024-02-04T22:53:16;101518.31;;;13.07;100.00
10897;BME280;5501;51.176;6.470;2024-02-04T22:58:18;101514.34;;;13.23;100.00
10897;BME280;5501;51.176;6.470;2024-02-04T23:03:19;101527.22;;;13.42;100.00
10897;BME280;5501;51.176;6.470;2024-02-04T23:08:21;101542.81;;;13.24;100.00
10897;BME280;5501;51.176;6.470;2024-02-04T23:13:23;101545.84;;;13.44;100.00
10897;BME280;5501;51.176;6.470;2024-02-04T23:18:24;101555.38;;;13.54;100.00
10897;BME280;5501;51.176;6.470;2024-02-04T23:23:26;101558.75;;;13.27;100.00
10897;BME280;5501;51.176;6.470;2024-02-04T23:28:30;101547.00;;;13.34;100.00
10897;BME280;5501;51.176;6.470;2024-02-04T23:33:32;101557.72;;;13.32;100.00
10897;BME280;5501;51.176;6.470;2024-02-04T23:38:33;101544.03;;;13.46;100.00
10897;BME280;5501;51.176;6.470;2024-02-04T23:43:35;101551.19;;;13.44;100.00
10897;BME280;5501;51.176;6.470;2024-02-04T23:48:36;101547.38;;;13.54;100.00
10897;BME280;5501;51.176;6.470;2024-02-04T23:53:38;101549.69;;;13.34;100.00
10897;BME280;5501;51.176;6.470;2024-02-04T23:58:40;101547.00;;;13.34;100.00
